Time;durP1;ratioP1;P1;durP2;ratioP2;P2;SDS_P1;SDS_P2;PMS_P1;PMS_P2;Temp;Humidity;BMP_temperature;BMP_pressure;BME280_temperature;BME280_humidity;BME280_pressure;Samples;Min_cycle;Max_cycle;Signal;HPM_P1;HPM_P2
2021/04/14 00:00:09;;;;;;;106.65;57.10;;;;;;;;;;5093048;28;20020;-49
2021/04/14 00:02:36;;;;;;;18.42;11.73;;;;;;;;;;5092967;28;20426;-51
2021/04/14 00:05:02;;;;;;;19.98;12.02;;;;;;;;;;5093165;28;20028;-49
2021/04/14 00:07:28;;;;;;;35.53;21.00;;;;;;;;;;5074843;28;20498;-50
2021/04/14 00:09:54;;;;;;;25.65;15.18;;;;;;;;;;5092658;28;20058;-51
2021/04/14 00:12:20;;;;;;;7.32;4.95;;;;;;;;;;5093038;28;20036;-50
2021/04/14 00:14:46;;;;;;;35.90;18.92;;;;;;;;;;5092969;28;20020;-51
2021/04/14 00:17:13;;;;;;;46.10;23.50;;;;;;;;;;5092912;28;20103;-51
2021/04/14 00:19:39;;;;;;;41.55;23.38;;;;;;;;;;5093081;28;20418;-51
2021/04/14 00:22:05;;;;;;;68.78;39.05;;;;;;;;;;5092672;28;20024;-50
2021/04/14 00:24:36;;;;;;;29.58;16.75;;;;;;;;;;5092714;28;20468;-51
2021/04/14 00:27:02;;;;;;;35.50;20.58;;;;;;;;;;5092914;28;20020;-51
2021/04/14 00:29:28;;;;;;;44.65;23.98;;;;;;;;;;5092716;28;20028;-51
2021/04/14 00:31:54;;;;;;;41.35;24.13;;;;;;;;;;5092892;28;20125;-51
2021/04/14 00:34:22;;;;;;;23.75;13.75;;;;;;;;;;5076855;28;20067;-51
2021/04/14 00:36:49;;;;;;;51.35;30.15;;;;;;;;;;5096150;28;20415;-51
2021/04/14 00:39:18;;;;;;;39.45;21.13;;;;;;;;;;5096209;28;20020;-49
2021/04/14 00:41:45;;;;;;;38.15;22.13;;;;;;;;;;5096305;28;20507;-50
2021/04/14 00:44:11;;;;;;;38.88;22.33;;;;;;;;;;5077659;28;20052;-49
2021/04/14 00:46:37;;;;;;;16.42;10.57;;;;;;;;;;5096148;28;20038;-50
2021/04/14 00:49:03;;;;;;;40.25;22.77;;;;;;;;;;5096155;28;20051;-51
2021/04/14 00:51:31;;;;;;;39.72;23.30;;;;;;;;;;5095793;28;20032;-49
2021/04/14 00:53:57;;;;;;;45.28;24.52;;;;;;;;;;5095888;28;20024;-49
2021/04/14 00:56:23;;;;;;;19.75;12.18;;;;;;;;;;5096037;28;20404;-52
2021/04/14 00:58:49;;;;;;;59.75;33.05;;;;;;;;;;5095662;28;20476;-52
2021/04/14 01:01:15;;;;;;;20.83;11.80;;;;;;;;;;5095914;28;20103;-50
2021/04/14 01:03:41;;;;;;;30.38;17.48;;;;;;;;;;5095704;28;20031;-52
2021/04/14 01:06:12;;;;;;;27.38;15.82;;;;;;;;;;5095578;28;20028;-50
2021/04/14 01:08:38;;;;;;;31.42;18.27;;;;;;;;;;5095264;28;20123;-49
2021/04/14 01:11:05;;;;;;;44.40;24.45;;;;;;;;;;5095489;28;20494;-51
2021/04/14 01:13:31;;;;;;;33.72;19.42;;;;;;;;;;5095612;28;20043;-51
2021/04/14 01:15:57;;;;;;;32.55;17.92;;;;;;;;;;5095377;28;20025;-51
2021/04/14 01:18:31;;;;;;;24.83;13.45;;;;;;;;;;5095470;28;20035;-50
2021/04/14 01:20:58;;;;;;;23.50;12.52;;;;;;;;;;5095366;28;21172;-50
2021/04/14 01:23:25;;;;;;;10.48;6.28;;;;;;;;;;5095257;28;20032;-51
2021/04/14 01:25:52;;;;;;;9.18;5.25;;;;;;;;;;5095446;28;20441;-51
2021/04/14 01:28:23;;;;;;;13.02;7.30;;;;;;;;;;5095480;28;20020;-52
2021/04/14 01:30:49;;;;;;;28.70;15.33;;;;;;;;;;5095557;28;20097;-52
2021/04/14 01:33:19;;;;;;;16.58;9.23;;;;;;;;;;5095340;28;20039;-51
2021/04/14 01:35:45;;;;;;;16.25;8.80;;;;;;;;;;5095352;28;20043;-49
2021/04/14 01:38:11;;;;;;;42.35;23.13;;;;;;;;;;5094911;28;20034;-51
2021/04/14 01:40:38;;;;;;;9.95;6.00;;;;;;;;;;5095016;28;20095;-49
2021/04/14 01:43:04;;;;;;;33.00;17.85;;;;;;;;;;5094959;28;20016;-51
2021/04/14 01:45:32;;;;;;;10.55;5.88;;;;;;;;;;5094823;28;20097;-51
2021/04/14 01:47:58;;;;;;;28.95;15.40;;;;;;;;;;5094787;28;20530;-50
2021/04/14 01:50:24;;;;;;;50.38;25.95;;;;;;;;;;5076647;28;20112;-51
2021/04/14 01:52:51;;;;;;;27.30;15.48;;;;;;;;;;5094720;28;20134;-51
2021/04/14 01:55:17;;;;;;;16.35;9.20;;;;;;;;;;5095002;28;20016;-51
2021/04/14 01:57:46;;;;;;;16.52;9.52;;;;;;;;;;5094690;28;20020;-51
2021/04/14 02:00:41;;;;;;;42.70;22.80;;;;;;;;;;5094681;28;20081;-51
2021/04/14 02:03:09;;;;;;;27.95;15.18;;;;;;;;;;5092436;28;20488;-52
2021/04/14 02:05:35;;;;;;;11.27;6.97;;;;;;;;;;5094561;28;20053;-50
2021/04/14 02:08:01;;;;;;;15.40;8.25;;;;;;;;;;5094129;28;20032;-50
2021/04/14 02:10:29;;;;;;;53.17;27.45;;;;;;;;;;5094553;28;20115;-51
2021/04/14 02:12:56;;;;;;;22.67;12.73;;;;;;;;;;5094402;28;20043;-52
2021/04/14 02:15:25;;;;;;;32.28;16.70;;;;;;;;;;5094325;28;20073;-51
2021/04/14 02:17:51;;;;;;;9.63;5.75;;;;;;;;;;5094555;28;20032;-52
2021/04/14 02:20:17;;;;;;;14.98;7.63;;;;;;;;;;5094340;28;20024;-50
2021/04/14 02:22:47;;;;;;;16.67;8.27;;;;;;;;;;5094300;28;20028;-50
2021/04/14 02:25:14;;;;;;;18.70;9.82;;;;;;;;;;5094294;28;20028;-48
2021/04/14 02:27:40;;;;;;;8.50;5.22;;;;;;;;;;5094345;28;20030;-51
2021/04/14 02:30:08;;;;;;;13.35;8.05;;;;;;;;;;5094124;28;20081;-50
2021/04/14 02:32:34;;;;;;;24.27;13.63;;;;;;;;;;5094065;28;20032;-50
2021/04/14 02:35:00;;;;;;;14.40;8.73;;;;;;;;;;5094071;28;20028;-50
2021/04/14 02:37:26;;;;;;;6.82;3.50;;;;;;;;;;5094413;28;20032;-51
2021/04/14 02:39:53;;;;;;;6.85;3.67;;;;;;;;;;5093998;28;20032;-49
2021/04/14 02:42:19;;;;;;;9.15;5.38;;;;;;;;;;5093989;28;20077;-51
2021/04/14 02:44:45;;;;;;;11.73;6.72;;;;;;;;;;5093784;28;20028;-50
2021/04/14 02:47:11;;;;;;;13.65;8.07;;;;;;;;;;5094170;28;20028;-50
2021/04/14 02:49:40;;;;;;;5.43;3.33;;;;;;;;;;5093916;28;20024;-49
2021/04/14 02:52:06;;;;;;;5.90;3.70;;;;;;;;;;5075602;28;20055;-50
2021/04/14 02:54:32;;;;;;;6.13;3.88;;;;;;;;;;5093658;28;20461;-51
2021/04/14 02:56:58;;;;;;;8.63;5.38;;;;;;;;;;5093504;28;20102;-50
2021/04/14 02:59:24;;;;;;;9.93;5.97;;;;;;;;;;5093705;28;20028;-50
2021/04/14 03:01:50;;;;;;;6.53;3.45;;;;;;;;;;5093654;28;20114;-49
2021/04/14 03:04:17;;;;;;;8.15;5.25;;;;;;;;;;5093634;28;20099;-50
2021/04/14 03:06:43;;;;;;;8.38;4.75;;;;;;;;;;5093579;28;20459;-50
2021/04/14 03:09:09;;;;;;;7.22;4.28;;;;;;;;;;5093213;28;20055;-49
2021/04/14 03:11:36;;;;;;;7.82;4.13;;;;;;;;;;5093523;28;20032;-50
2021/04/14 03:14:04;;;;;;;5.90;3.22;;;;;;;;;;5093454;28;20027;-50
2021/04/14 03:16:30;;;;;;;4.85;3.20;;;;;;;;;;5093457;28;20020;-50
2021/04/14 03:18:57;;;;;;;3.97;3.13;;;;;;;;;;5093699;28;20077;-52
2021/04/14 03:21:23;;;;;;;7.50;4.03;;;;;;;;;;5093391;28;20059;-50
2021/04/14 03:23:49;;;;;;;5.40;3.05;;;;;;;;;;5093411;28;20378;-50
2021/04/14 03:26:15;;;;;;;4.63;3.20;;;;;;;;;;5093362;28;20031;-52
2021/04/14 03:28:41;;;;;;;4.82;3.50;;;;;;;;;;5093355;28;20024;-50
2021/04/14 03:31:08;;;;;;;4.25;3.25;;;;;;;;;;5093143;28;20020;-50
2021/04/14 03:33:35;;;;;;;3.53;2.70;;;;;;;;;;5093386;28;20028;-50
2021/04/14 03:36:03;;;;;;;3.65;2.95;;;;;;;;;;5075148;28;20032;-50
2021/04/14 03:38:30;;;;;;;3.97;2.83;;;;;;;;;;5093233;28;20027;-50
2021/04/14 03:40:56;;;;;;;2.80;2.33;;;;;;;;;;5093444;28;20032;-50
2021/04/14 03:43:22;;;;;;;6.35;4.10;;;;;;;;;;5093230;28;20028;-51
2021/04/14 03:45:52;;;;;;;3.65;2.95;;;;;;;;;;5093131;28;20391;-48
2021/04/14 03:48:20;;;;;;;4.93;3.15;;;;;;;;;;5093354;28;20392;-49
2021/04/14 03:50:48;;;;;;;5.72;3.95;;;;;;;;;;5093353;28;20045;-49
2021/04/14 03:53:26;;;;;;;4.40;2.80;;;;;;;;;;5093001;28;20036;-50
2021/04/14 03:55:56;;;;;;;4.40;3.30;;;;;;;;;;5093100;28;20049;-51
2021/04/14 03:58:23;;;;;;;7.50;3.60;;;;;;;;;;5093012;28;20032;-49
2021/04/14 04:00:52;;;;;;;6.78;3.53;;;;;;;;;;5093329;28;20070;-50
2021/04/14 04:03:19;;;;;;;5.55;3.95;;;;;;;;;;5093330;28;20027;-49
2021/04/14 04:05:46;;;;;;;6.22;4.75;;;;;;;;;;5093112;28;20432;-50
2021/04/14 04:08:12;;;;;;;5.13;3.92;;;;;;;;;;5093453;28;20085;-52
2021/04/14 04:10:38;;;;;;;5.63;4.28;;;;;;;;;;5096833;28;20031;-51
2021/04/14 04:13:05;;;;;;;4.85;3.92;;;;;;;;;;5096744;28;20039;-49
2021/04/14 04:15:31;;;;;;;6.18;4.57;;;;;;;;;;5096898;28;20024;-49
2021/04/14 04:18:02;;;;;;;6.03;4.72;;;;;;;;;;5096729;28;20024;-51
2021/04/14 04:20:28;;;;;;;6.05;4.55;;;;;;;;;;5096823;28;20384;-51
2021/04/14 04:22:54;;;;;;;6.93;5.40;;;;;;;;;;5096370;28;20086;-51
2021/04/14 04:25:20;;;;;;;7.10;4.82;;;;;;;;;;5096939;28;20383;-50
2021/04/14 04:27:46;;;;;;;6.22;5.25;;;;;;;;;;5096831;28;20024;-52
2021/04/14 04:30:13;;;;;;;5.50;4.43;;;;;;;;;;5078276;28;20025;-53
2021/04/14 04:32:39;;;;;;;7.47;5.35;;;;;;;;;;5096701;28;20036;-52
2021/04/14 04:35:06;;;;;;;6.43;4.35;;;;;;;;;;5096453;28;20099;-50
2021/04/14 04:37:32;;;;;;;7.15;5.38;;;;;;;;;;5096651;28;20043;-50
2021/04/14 04:39:58;;;;;;;28.92;17.52;;;;;;;;;;5096207;28;20028;-51
2021/04/14 04:42:24;;;;;;;11.50;8.25;;;;;;;;;;5096134;28;20043;-51
2021/04/14 04:44:50;;;;;;;9.35;5.85;;;;;;;;;;5096442;28;20027;-49
2021/04/14 04:47:16;;;;;;;16.05;9.88;;;;;;;;;;5096069;28;20028;-49
2021/04/14 04:49:42;;;;;;;12.10;8.02;;;;;;;;;;5096079;28;20028;-51
2021/04/14 04:52:09;;;;;;;12.57;6.72;;;;;;;;;;5096259;28;20437;-50
2021/04/14 04:54:35;;;;;;;24.80;15.52;;;;;;;;;;5095908;28;20056;-51
2021/04/14 04:57:01;;;;;;;19.00;10.30;;;;;;;;;;5095855;28;20395;-49
2021/04/14 04:59:27;;;;;;;19.17;11.02;;;;;;;;;;5095865;28;20020;-51
2021/04/14 05:01:56;;;;;;;30.38;16.63;;;;;;;;;;5096115;28;20020;-52
2021/04/14 05:04:22;;;;;;;39.47;21.55;;;;;;;;;;5095930;28;20413;-49
2021/04/14 05:06:48;;;;;;;22.50;12.05;;;;;;;;;;5077759;28;20020;-49
2021/04/14 05:09:14;;;;;;;18.75;10.75;;;;;;;;;;5095396;28;20093;-49
2021/04/14 05:11:41;;;;;;;13.85;8.32;;;;;;;;;;5095476;28;20035;-49
2021/04/14 05:14:08;;;;;;;25.52;14.80;;;;;;;;;;5095664;28;20102;-49
2021/04/14 05:16:34;;;;;;;22.52;13.48;;;;;;;;;;5095910;28;20022;-51
2021/04/14 05:19:00;;;;;;;32.60;18.95;;;;;;;;;;5095127;28;20080;-49
2021/04/14 05:21:26;;;;;;;23.02;14.63;;;;;;;;;;5095634;28;20052;-53
2021/04/14 05:23:53;;;;;;;71.57;39.20;;;;;;;;;;5095402;28;20031;-52
2021/04/14 05:26:20;;;;;;;50.33;28.63;;;;;;;;;;5095422;28;20021;-50
2021/04/14 05:28:46;;;;;;;55.83;31.27;;;;;;;;;;5095312;28;20514;-50
2021/04/14 05:31:15;;;;;;;27.98;17.83;;;;;;;;;;5095314;28;20017;-49
2021/04/14 05:33:41;;;;;;;46.00;28.90;;;;;;;;;;5095334;28;20516;-49
2021/04/14 05:36:10;;;;;;;21.13;14.48;;;;;;;;;;5095447;28;20024;-49
2021/04/14 05:38:38;;;;;;;22.00;15.65;;;;;;;;;;5095032;28;20028;-49
2021/04/14 05:41:04;;;;;;;21.77;15.50;;;;;;;;;;5095078;28;20031;-51
2021/04/14 05:43:33;;;;;;;17.02;10.93;;;;;;;;;;5095202;28;20032;-50
2021/04/14 05:46:00;;;;;;;24.33;16.60;;;;;;;;;;5094995;28;20031;-50
2021/04/14 05:48:27;;;;;;;16.67;11.77;;;;;;;;;;5095139;28;20052;-51
2021/04/14 05:50:55;;;;;;;13.30;8.10;;;;;;;;;;5094961;28;20024;-51
2021/04/14 05:53:21;;;;;;;11.30;9.13;;;;;;;;;;5094699;28;20089;-50
2021/04/14 05:55:48;;;;;;;16.27;11.02;;;;;;;;;;5076788;28;20055;-50
2021/04/14 05:58:14;;;;;;;22.25;13.73;;;;;;;;;;5094970;28;20528;-52
2021/04/14 06:00:40;;;;;;;17.13;11.43;;;;;;;;;;5094989;28;20399;-52
2021/04/14 06:03:06;;;;;;;19.10;12.38;;;;;;;;;;5095005;28;20035;-51
2021/04/14 06:05:32;;;;;;;17.35;11.90;;;;;;;;;;5094711;28;20031;-52
2021/04/14 06:07:58;;;;;;;18.52;12.57;;;;;;;;;;5094484;28;20130;-51
2021/04/14 06:10:25;;;;;;;13.45;9.57;;;;;;;;;;5094532;28;20373;-49
2021/04/14 06:12:52;;;;;;;16.05;11.43;;;;;;;;;;5094508;28;20043;-52
2021/04/14 06:15:21;;;;;;;13.82;10.02;;;;;;;;;;5094530;28;20387;-50
2021/04/14 06:17:47;;;;;;;11.85;8.75;;;;;;;;;;5094434;28;20028;-52
2021/04/14 06:20:16;;;;;;;14.20;10.30;;;;;;;;;;5094566;28;20153;-51
2021/04/14 06:22:43;;;;;;;13.38;10.23;;;;;;;;;;5094413;28;20024;-53
2021/04/14 06:25:11;;;;;;;11.88;8.57;;;;;;;;;;5094130;28;20028;-52
2021/04/14 06:27:44;;;;;;;9.00;6.95;;;;;;;;;;5094338;28;20020;-49
2021/04/14 06:30:10;;;;;;;13.90;8.68;;;;;;;;;;5093984;28;20028;-51
2021/04/14 06:32:36;;;;;;;11.55;8.02;;;;;;;;;;5093564;28;20123;-51
2021/04/14 06:35:02;;;;;;;11.15;7.60;;;;;;;;;;5094165;28;20020;-51
2021/04/14 06:37:28;;;;;;;10.18;7.82;;;;;;;;;;5076034;28;20031;-51
2021/04/14 06:43:12;;;;;;;11.13;8.07;;;;;;;;;;5051940;28;20041;-50
2021/04/14 06:45:44;;;;;;;10.20;6.35;;;;;;;;;;5051718;28;20104;-50
2021/04/14 06:48:10;;;;;;;10.45;7.53;;;;;;;;;;5051690;28;20382;-50
2021/04/14 06:50:36;;;;;;;11.38;8.30;;;;;;;;;;5051608;28;20109;-50
2021/04/14 06:53:08;;;;;;;9.73;7.15;;;;;;;;;;5051463;28;20103;-50
2021/04/14 06:55:37;;;;;;;10.57;7.00;;;;;;;;;;5051349;28;20021;-51
2021/04/14 06:58:07;;;;;;;8.23;6.30;;;;;;;;;;5051616;28;20477;-52
2021/04/14 07:00:56;;;;;;;8.60;6.97;;;;;;;;;;5051427;28;20146;-53
2021/04/14 07:03:22;;;;;;;7.45;5.88;;;;;;;;;;4972885;28;20035;-53
2021/04/14 07:05:52;;;;;;;6.43;5.60;;;;;;;;;;4972730;28;20502;-53
2021/04/14 07:08:20;;;;;;;14.40;9.95;;;;;;;;;;4972397;28;20122;-53
2021/04/14 07:10:49;;;;;;;22.60;12.57;;;;;;;;;;4988648;28;20038;-54
2021/04/14 07:13:15;;;;;;;30.58;16.55;;;;;;;;;;4991774;28;20046;-54
2021/04/14 07:15:41;;;;;;;16.85;9.95;;;;;;;;;;4991726;28;20514;-53
2021/04/14 07:18:08;;;;;;;67.07;36.53;;;;;;;;;;4992747;28;20037;-51
2021/04/14 07:20:35;;;;;;;17.38;10.52;;;;;;;;;;5011346;28;20058;-54
2021/04/14 07:23:18;;;;;;;11.68;7.20;;;;;;;;;;5010847;28;20498;-53
2021/04/14 07:25:57;;;;;;;49.25;27.80;;;;;;;;;;5011205;28;20022;-53
2021/04/14 07:28:26;;;;;;;55.42;33.58;;;;;;;;;;5011385;28;20537;-54
2021/04/14 07:30:55;;;;;;;19.50;12.25;;;;;;;;;;5011253;28;20033;-50
2021/04/14 07:33:22;;;;;;;35.88;22.80;;;;;;;;;;5010910;28;20068;-52
2021/04/14 07:35:48;;;;;;;15.60;11.05;;;;;;;;;;5010715;28;20113;-51
2021/04/14 07:38:28;;;;;;;29.23;16.45;;;;;;;;;;5009550;28;20026;-49
2021/04/14 07:41:17;;;;;;;86.47;48.05;;;;;;;;;;5054319;28;20032;-46
2021/04/14 07:43:53;;;;;;;48.13;27.52;;;;;;;;;;5069431;28;20031;-48
2021/04/14 07:46:23;;;;;;;30.15;15.82;;;;;;;;;;5076105;28;20480;-48
2021/04/14 07:48:51;;;;;;;26.42;15.77;;;;;;;;;;5076930;28;20032;-47
2021/04/14 07:51:18;;;;;;;24.88;12.82;;;;;;;;;;5076789;28;20169;-46
2021/04/14 07:53:55;;;;;;;22.08;10.32;;;;;;;;;;5076919;28;20086;-54
2021/04/14 07:56:22;;;;;;;18.15;11.95;;;;;;;;;;5076822;28;20500;-53
2021/04/14 07:58:53;;;;;;;27.75;14.93;;;;;;;;;;5076716;28;20439;-51
2021/04/14 08:01:23;;;;;;;9.70;5.88;;;;;;;;;;5077047;28;20024;-52
2021/04/14 08:03:50;;;;;;;48.30;14.45;;;;;;;;;;5076493;28;20021;-50
2021/04/14 08:06:25;;;;;;;28.42;9.85;;;;;;;;;;5076583;28;20032;-52
2021/04/14 08:08:55;;;;;;;18.95;9.52;;;;;;;;;;5083931;28;20040;-51
2021/04/14 08:11:30;;;;;;;16.52;8.98;;;;;;;;;;5097225;28;20377;-51
2021/04/14 08:14:07;;;;;;;12.30;7.07;;;;;;;;;;5096808;28;20054;-50
2021/04/14 08:16:40;;;;;;;18.17;7.13;;;;;;;;;;5096721;28;20107;-50
2021/04/14 08:19:19;;;;;;;11.73;6.28;;;;;;;;;;5078547;28;20110;-51
2021/04/14 08:22:00;;;;;;;10.90;5.72;;;;;;;;;;5096697;28;20112;-50
2021/04/14 08:24:26;;;;;;;;;;;;;;;;;;5097264;28;20024;-49
2021/04/14 08:26:57;;;;;;;11.88;6.03;;;;;;;;;;5096767;28;20270;-50
2021/04/14 08:29:23;;;;;;;13.52;8.15;;;;;;;;;;5096833;28;20024;-50
2021/04/14 08:31:50;;;;;;;9.82;6.25;;;;;;;;;;5096615;28;20021;-51
2021/04/14 08:34:16;;;;;;;10.93;7.28;;;;;;;;;;5096762;28;20107;-51
2021/04/14 08:36:48;;;;;;;11.05;6.32;;;;;;;;;;5096535;28;20425;-53
2021/04/14 08:39:16;;;;;;;9.98;5.80;;;;;;;;;;5096566;28;20107;-54
2021/04/14 08:41:42;;;;;;;11.75;5.88;;;;;;;;;;5096322;28;20414;-54
2021/04/14 08:44:18;;;;;;;6.85;5.50;;;;;;;;;;5078320;28;20024;-53
2021/04/14 08:46:44;;;;;;;6.38;5.22;;;;;;;;;;5096121;28;20503;-54
2021/04/14 08:49:13;;;;;;;8.23;5.93;;;;;;;;;;5096179;28;20031;-54
2021/04/14 08:51:44;;;;;;;10.10;7.15;;;;;;;;;;5096153;28;20468;-54
2021/04/14 08:54:18;;;;;;;10.05;7.15;;;;;;;;;;5095162;28;20077;-54
2021/04/14 08:56:44;;;;;;;13.07;7.47;;;;;;;;;;5096475;28;20089;-54
2021/04/14 08:59:11;;;;;;;8.75;6.70;;;;;;;;;;5096265;28;20016;-54
2021/04/14 09:01:40;;;;;;;9.18;6.72;;;;;;;;;;5095839;28;20020;-53
2021/04/14 09:04:08;;;;;;;12.05;8.68;;;;;;;;;;5095922;28;20095;-53
2021/04/14 09:06:34;;;;;;;10.77;8.25;;;;;;;;;;5095737;28;20027;-53
2021/04/14 09:09:07;;;;;;;13.30;8.90;;;;;;;;;;5095559;28;20051;-54
2021/04/14 09:11:34;;;;;;;10.82;8.10;;;;;;;;;;5095783;28;20371;-54
2021/04/14 09:14:03;;;;;;;8.90;7.28;;;;;;;;;;5095803;28;20509;-54
2021/04/14 09:16:33;;;;;;;8.25;6.18;;;;;;;;;;5095612;28;20016;-54
2021/04/14 09:19:10;;;;;;;7.43;5.82;;;;;;;;;;5095744;28;20023;-54
2021/04/14 09:21:44;;;;;;;7.30;5.78;;;;;;;;;;5095705;28;20020;-52
2021/04/14 09:24:20;;;;;;;10.63;8.02;;;;;;;;;;5095832;28;20546;-55
2021/04/14 09:26:53;;;;;;;20.27;12.77;;;;;;;;;;5095660;28;20028;-54
2021/04/14 09:29:30;;;;;;;24.65;13.55;;;;;;;;;;5095593;28;20051;-54
2021/04/14 09:31:58;;;;;;;19.17;8.82;;;;;;;;;;5095177;28;20369;-54
2021/04/14 09:34:31;;;;;;;23.42;14.88;;;;;;;;;;5095238;28;20020;-54
2021/04/14 09:37:07;;;;;;;20.35;12.30;;;;;;;;;;5095247;28;20027;-54
2021/04/14 09:39:42;;;;;;;11.98;8.20;;;;;;;;;;5095216;28;20062;-54
2021/04/14 09:42:34;;;;;;;6.85;5.63;;;;;;;;;;5095071;28;20039;-53
2021/04/14 09:45:13;;;;;;;8.30;7.00;;;;;;;;;;5091492;28;20450;-53
2021/04/14 09:47:39;;;;;;;10.23;7.03;;;;;;;;;;5095060;28;20020;-53
2021/04/14 09:50:14;;;;;;;7.20;6.20;;;;;;;;;;5095154;28;20060;-54
2021/04/14 09:52:44;;;;;;;10.80;6.80;;;;;;;;;;5094765;28;20578;-53
2021/04/14 09:55:22;;;;;;;12.60;8.23;;;;;;;;;;5076792;28;20535;-53
2021/04/14 09:57:50;;;;;;;11.98;7.80;;;;;;;;;;5094904;28;20107;-54
2021/04/14 10:00:37;;;;;;;11.23;8.52;;;;;;;;;;5094927;28;20024;-54
2021/04/14 10:03:10;;;;;;;8.88;6.03;;;;;;;;;;5012614;28;20045;-54
2021/04/14 10:05:36;;;;;;;8.07;6.65;;;;;;;;;;5012816;28;20109;-53
2021/04/14 10:08:04;;;;;;;10.50;7.25;;;;;;;;;;5012416;28;20390;-53
2021/04/14 10:10:30;;;;;;;14.07;8.63;;;;;;;;;;5012542;28;20056;-53
2021/04/14 10:12:58;;;;;;;12.48;7.10;;;;;;;;;;5012624;28;20092;-55
2021/04/14 10:15:32;;;;;;;9.02;6.18;;;;;;;;;;5012550;28;20166;-53
2021/04/14 10:18:01;;;;;;;10.52;6.90;;;;;;;;;;5012530;28;20040;-53
2021/04/14 10:20:30;;;;;;;9.20;6.45;;;;;;;;;;5012534;28;20074;-53
2021/04/14 10:22:56;;;;;;;10.20;6.47;;;;;;;;;;5012498;28;20026;-54
2021/04/14 10:25:23;;;;;;;8.20;5.32;;;;;;;;;;5012467;28;20036;-53
2021/04/14 10:27:51;;;;;;;8.95;6.70;;;;;;;;;;5012338;28;20065;-54
2021/04/14 10:30:21;;;;;;;11.50;7.25;;;;;;;;;;5012473;28;20029;-54
2021/04/14 10:32:47;;;;;;;11.77;7.63;;;;;;;;;;5012078;28;20034;-56
2021/04/14 10:35:15;;;;;;;10.80;6.38;;;;;;;;;;5012029;28;20109;-54
2021/04/14 10:37:46;;;;;;;10.52;7.90;;;;;;;;;;4995774;28;20056;-53
2021/04/14 10:40:20;;;;;;;22.02;13.25;;;;;;;;;;5054973;28;20036;-54
2021/04/14 10:42:48;;;;;;;34.08;15.75;;;;;;;;;;5094342;28;20467;-54
2021/04/14 10:45:15;;;;;;;44.35;20.40;;;;;;;;;;5093924;28;20073;-55
2021/04/14 10:47:43;;;;;;;30.35;16.15;;;;;;;;;;5094027;28;20476;-55
2021/04/14 10:50:35;;;;;;;12.00;8.15;;;;;;;;;;5094230;28;20020;-53
2021/04/14 10:53:06;;;;;;;7.65;6.28;;;;;;;;;;5090142;28;20055;-54
2021/04/14 10:55:34;;;;;;;43.28;26.83;;;;;;;;;;5093969;28;20065;-54
2021/04/14 10:58:02;;;;;;;9.38;7.43;;;;;;;;;;5075716;28;20077;-53
2021/04/14 11:00:31;;;;;;;10.60;7.57;;;;;;;;;;5093642;28;20016;-55
2021/04/14 11:03:00;;;;;;;11.85;6.68;;;;;;;;;;5093812;28;20081;-54
2021/04/14 11:05:30;;;;;;;9.07;5.70;;;;;;;;;;5093730;28;20089;-55
2021/04/14 11:07:57;;;;;;;10.52;6.80;;;;;;;;;;5093754;28;20023;-52
2021/04/14 11:10:25;;;;;;;9.25;6.45;;;;;;;;;;5093902;28;20040;-55
2021/04/14 11:12:54;;;;;;;10.93;7.43;;;;;;;;;;5093794;28;20112;-55
2021/04/14 11:15:22;;;;;;;13.70;8.50;;;;;;;;;;5093952;28;20047;-55
2021/04/14 11:17:58;;;;;;;13.50;8.40;;;;;;;;;;5093195;28;20070;-55
2021/04/14 11:20:26;;;;;;;26.08;14.02;;;;;;;;;;5093643;28;20544;-56
2021/04/14 11:22:55;;;;;;;24.10;13.07;;;;;;;;;;5093413;28;20145;-54
2021/04/14 11:25:27;;;;;;;31.58;16.55;;;;;;;;;;5093424;28;20041;-54
2021/04/14 11:27:59;;;;;;;35.33;16.45;;;;;;;;;;5093334;28;20028;-54
2021/04/14 11:30:27;;;;;;;36.00;13.70;;;;;;;;;;5093416;28;20357;-55
2021/04/14 11:32:56;;;;;;;16.10;8.90;;;;;;;;;;5093389;28;20046;-54
2021/04/14 11:35:36;;;;;;;13.35;8.45;;;;;;;;;;5093403;28;20023;-54
2021/04/14 11:38:02;;;;;;;17.08;9.00;;;;;;;;;;5093187;28;20028;-54
2021/04/14 11:40:31;;;;;;;11.68;7.70;;;;;;;;;;5093336;28;20050;-55
2021/04/14 11:43:02;;;;;;;8.38;5.93;;;;;;;;;;5093414;28;20020;-54
2021/04/14 11:45:29;;;;;;;11.18;7.30;;;;;;;;;;5093197;28;20039;-54
2021/04/14 11:48:05;;;;;;;9.05;6.32;;;;;;;;;;5093439;28;20373;-52
2021/04/14 11:50:33;;;;;;;8.63;6.07;;;;;;;;;;5093278;28;20089;-54
2021/04/14 11:53:00;;;;;;;9.25;6.07;;;;;;;;;;5093059;28;20033;-55
2021/04/14 11:55:26;;;;;;;8.05;6.03;;;;;;;;;;5093076;28;20495;-53
2021/04/14 11:57:57;;;;;;;9.02;5.85;;;;;;;;;;5093243;28;20108;-54
2021/04/14 12:00:39;;;;;;;8.85;5.93;;;;;;;;;;5058365;28;20024;-54
2021/04/14 12:03:25;;;;;;;12.35;7.95;;;;;;;;;;5093667;28;20028;-54
2021/04/14 12:05:53;;;;;;;11.38;7.10;;;;;;;;;;5093271;28;20028;-52
2021/04/14 12:08:19;;;;;;;13.30;8.27;;;;;;;;;;5092901;28;20055;-55
2021/04/14 12:10:45;;;;;;;14.30;8.38;;;;;;;;;;5093031;28;20036;-54
2021/04/14 12:13:12;;;;;;;11.75;8.38;;;;;;;;;;5093033;28;20046;-54
2021/04/14 12:15:38;;;;;;;16.25;10.93;;;;;;;;;;5093032;28;20027;-53
2021/04/14 12:18:04;;;;;;;14.70;9.57;;;;;;;;;;5093046;28;20494;-53
2021/04/14 12:20:30;;;;;;;15.52;10.70;;;;;;;;;;5092845;28;20024;-54
2021/04/14 12:22:57;;;;;;;15.77;9.93;;;;;;;;;;5092771;28;20464;-53
2021/04/14 12:25:23;;;;;;;15.85;10.15;;;;;;;;;;5092932;28;20387;-53
2021/04/14 12:27:50;;;;;;;18.08;8.98;;;;;;;;;;5092986;28;20089;-53
2021/04/14 12:30:16;;;;;;;13.63;8.10;;;;;;;;;;5095176;28;20016;-53
2021/04/14 12:32:42;;;;;;;13.35;8.57;;;;;;;;;;5096581;28;20058;-55
2021/04/14 12:35:12;;;;;;;10.25;8.13;;;;;;;;;;5096380;28;20143;-54
2021/04/14 12:37:38;;;;;;;10.20;7.72;;;;;;;;;;5096580;28;20149;-53
2021/04/14 12:40:04;;;;;;;9.07;7.53;;;;;;;;;;5096682;28;20032;-52
2021/04/14 12:42:32;;;;;;;12.13;8.70;;;;;;;;;;5096511;28;20020;-54
2021/04/14 12:44:59;;;;;;;14.45;9.48;;;;;;;;;;5096419;28;20024;-53
2021/04/14 12:47:27;;;;;;;16.60;9.20;;;;;;;;;;5096194;28;20012;-54
2021/04/14 12:49:53;;;;;;;10.63;7.32;;;;;;;;;;5096615;28;20020;-54
2021/04/14 12:52:25;;;;;;;6.40;5.80;;;;;;;;;;5096162;28;20028;-54
2021/04/14 12:54:55;;;;;;;8.75;6.90;;;;;;;;;;5096406;28;20353;-55
2021/04/14 12:57:23;;;;;;;11.20;7.28;;;;;;;;;;5096188;28;20024;-53
2021/04/14 12:59:49;;;;;;;9.98;8.07;;;;;;;;;;5096283;28;20031;-53
2021/04/14 13:02:18;;;;;;;9.43;7.15;;;;;;;;;;5095866;28;20047;-53
2021/04/14 13:04:54;;;;;;;8.30;7.43;;;;;;;;;;5096032;28;20031;-52
2021/04/14 13:07:24;;;;;;;9.88;8.88;;;;;;;;;;5095840;28;20081;-53
2021/04/14 13:09:51;;;;;;;9.68;8.68;;;;;;;;;;5095509;28;20075;-53
2021/04/14 13:12:23;;;;;;;12.25;10.48;;;;;;;;;;5095640;28;20028;-54
2021/04/14 13:14:52;;;;;;;10.77;9.68;;;;;;;;;;5095578;28;20433;-54
2021/04/14 13:17:19;;;;;;;9.45;8.55;;;;;;;;;;5095808;28;20032;-55
2021/04/14 13:19:45;;;;;;;10.75;9.63;;;;;;;;;;5095932;28;20024;-54
2021/04/14 13:22:31;;;;;;;9.63;8.30;;;;;;;;;;5095816;28;20387;-54
2021/04/14 13:25:17;;;;;;;8.60;7.18;;;;;;;;;;5013624;28;20038;-54
2021/04/14 13:28:00;;;;;;;8.85;7.22;;;;;;;;;;5013512;28;20057;-54
2021/04/14 13:30:30;;;;;;;7.82;7.03;;;;;;;;;;5013489;28;20038;-54
2021/04/14 13:32:59;;;;;;;27.25;20.67;;;;;;;;;;5012818;28;20061;-50
2021/04/14 13:35:28;;;;;;;17.42;13.32;;;;;;;;;;4994069;28;20482;-53
2021/04/14 13:38:15;;;;;;;24.25;15.18;;;;;;;;;;4993264;28;20026;-52
2021/04/14 13:40:44;;;;;;;50.75;31.05;;;;;;;;;;4993137;28;20487;-51
2021/04/14 13:43:15;;;;;;;34.38;21.63;;;;;;;;;;4993416;28;20387;-52
2021/04/14 13:45:49;;;;;;;24.37;15.97;;;;;;;;;;4993406;28;20178;-50
2021/04/14 13:48:19;;;;;;;20.83;13.60;;;;;;;;;;4993287;28;20061;-54
2021/04/14 13:50:45;;;;;;;17.02;11.27;;;;;;;;;;4993268;28;20117;-52
2021/04/14 13:53:13;;;;;;;21.13;13.32;;;;;;;;;;4993165;28;20446;-54
2021/04/14 13:55:40;;;;;;;62.10;33.17;;;;;;;;;;4995069;28;20462;-54
2021/04/14 13:58:09;;;;;;;46.67;27.67;;;;;;;;;;5011104;28;20080;-53
2021/04/14 14:00:40;;;;;;;47.92;29.48;;;;;;;;;;5011000;28;20025;-53
2021/04/14 14:03:06;;;;;;;22.67;16.83;;;;;;;;;;5083758;28;20040;-52
2021/04/14 14:05:35;;;;;;;84.90;50.03;;;;;;;;;;5092827;28;20070;-53
2021/04/14 14:08:01;;;;;;;38.20;24.10;;;;;;;;;;5093238;28;20024;-52
2021/04/14 14:10:29;;;;;;;15.82;12.88;;;;;;;;;;5093149;28;20114;-50
2021/04/14 14:13:03;;;;;;;22.48;14.10;;;;;;;;;;5094362;28;20035;-49
2021/04/14 14:15:31;;;;;;;18.15;12.60;;;;;;;;;;5094436;28;20104;-50
2021/04/14 14:17:57;;;;;;;33.78;22.50;;;;;;;;;;5092827;28;20020;-53
2021/04/14 14:20:26;;;;;;;24.90;15.68;;;;;;;;;;5092558;28;20022;-53
2021/04/14 14:22:58;;;;;;;23.58;15.38;;;;;;;;;;5092333;28;20028;-49
2021/04/14 14:25:24;;;;;;;;;;;;;;;;;;5090631;28;20012;-50
2021/04/14 14:27:50;;;;;;;52.13;30.42;;;;;;;;;;5093096;28;19984;-52
2021/04/14 14:30:16;;;;;;;36.70;22.60;;;;;;;;;;5094136;28;20027;-56
2021/04/14 14:32:42;;;;;;;32.85;20.23;;;;;;;;;;5093824;28;20096;-53
2021/04/14 14:35:11;;;;;;;40.38;24.50;;;;;;;;;;5093878;28;20484;-49
2021/04/14 14:37:43;;;;;;;63.78;38.33;;;;;;;;;;5094051;28;20099;-49
2021/04/14 14:40:13;;;;;;;70.57;37.67;;;;;;;;;;5093832;28;20504;-51